Time;durP1;ratioP1;P1;durP2;ratioP2;P2;SDS_P1;SDS_P2;PMS_P1;PMS_P2;Temp;Humidity;BMP_temperature;BMP_pressure;BME280_temperature;BME280_humidity;BME280_pressure;Samples;Min_cycle;Max_cycle;Signal;HPM_P1;HPM_P2
2022/01/06 00:01:42;;;;;;;18.83;4.50;;;4.90;99.90;;;;;;5078091;28;20079;-70
2022/01/06 00:04:08;;;;;;;12.82;4.00;;;4.90;99.90;;;;;;5078628;28;20124;-69
2022/01/06 00:06:38;;;;;;;9.05;4.00;;;4.90;99.90;;;;;;5074686;28;20040;-69
2022/01/06 00:09:06;;;;;;;15.88;4.55;;;4.90;99.90;;;;;;5078853;28;20101;-69
2022/01/06 00:11:32;;;;;;;15.93;5.30;;;4.90;99.90;;;;;;5073525;28;20048;-69
2022/01/06 00:14:40;;;;;;;12.48;5.00;;;4.90;99.90;;;;;;5078020;28;20040;-69
2022/01/06 00:24:47;;;;;;;16.67;4.25;;;4.90;99.90;;;;;;5081026;28;20054;-69
2022/01/06 00:27:14;;;;;;;10.82;3.90;;;4.90;99.90;;;;;;5075114;28;20485;-69
2022/01/06 00:29:41;;;;;;;11.10;3.45;;;4.90;99.90;;;;;;5078762;28;20055;-69
2022/01/06 00:32:07;;;;;;;9.65;3.85;;;4.90;99.90;;;;;;5079577;28;20047;-70
2022/01/06 00:34:33;;;;;;;17.95;4.65;;;4.90;99.90;;;;;;5075668;28;20066;-69
2022/01/06 00:36:58;;;;;;;11.35;3.40;;;4.90;99.90;;;;;;5080103;28;20127;-69
2022/01/06 00:39:27;;;;;;;19.98;4.22;;;4.80;99.90;;;;;;5061497;28;20333;-70
2022/01/06 00:41:59;;;;;;;13.57;4.32;;;4.80;99.90;;;;;;5075468;28;20047;-69
2022/01/06 00:44:26;;;;;;;15.45;4.03;;;4.80;99.90;;;;;;5081317;28;20067;-69
2022/01/06 00:46:52;;;;;;;9.45;3.72;;;4.80;99.90;;;;;;5073731;28;20564;-69
2022/01/06 00:49:20;;;;;;;11.95;3.58;;;4.80;99.90;;;;;;5081350;28;20045;-69
2022/01/06 00:51:46;;;;;;;14.73;3.95;;;4.80;99.90;;;;;;5075096;28;20135;-69
2022/01/06 00:54:13;;;;;;;16.52;4.35;;;4.70;99.90;;;;;;5076829;28;20485;-69
2022/01/06 00:56:39;;;;;;;10.32;3.83;;;4.70;99.90;;;;;;5076150;28;20405;-69
2022/01/06 00:59:05;;;;;;;12.68;4.38;;;4.70;99.90;;;;;;5040841;28;20076;-69
2022/01/06 01:01:32;;;;;;;14.25;4.47;;;4.70;99.90;;;;;;5073967;28;20048;-69
2022/01/06 01:03:58;;;;;;;14.18;4.28;;;4.70;99.90;;;;;;5076334;28;20084;-69
2022/01/06 01:06:24;;;;;;;11.63;3.38;;;4.70;99.90;;;;;;5076991;28;20123;-69
2022/01/06 01:08:50;;;;;;;14.88;4.28;;;4.70;99.90;;;;;;5078836;28;20147;-69
2022/01/06 01:11:16;;;;;;;13.90;4.63;;;4.60;99.90;;;;;;5074131;28;20472;-69
2022/01/06 01:13:54;;;;;;;13.27;4.25;;;4.70;99.90;;;;;;5076285;28;20058;-69
2022/01/06 01:16:29;;;;;;;13.50;4.00;;;4.60;99.90;;;;;;5078536;28;20040;-69
2022/01/06 01:18:57;;;;;;;16.42;3.80;;;4.60;99.90;;;;;;5076862;28;20039;-69
2022/01/06 01:21:27;;;;;;;13.18;4.32;;;4.60;99.90;;;;;;5080244;28;20051;-69
2022/01/06 01:23:55;;;;;;;20.63;4.75;;;4.60;99.90;;;;;;5076110;28;20181;-69
2022/01/06 01:26:22;;;;;;;13.20;3.92;;;4.60;99.90;;;;;;5076552;28;20051;-69
2022/01/06 01:28:50;;;;;;;16.70;4.55;;;4.50;99.90;;;;;;5061439;28;20492;-69
2022/01/06 01:33:43;;;;;;;8.80;3.10;;;4.60;99.90;;;;;;5079938;28;20048;-70
2022/01/06 01:36:09;;;;;;;11.05;4.18;;;4.60;99.90;;;;;;5077298;28;20569;-69
2022/01/06 01:38:37;;;;;;;10.27;3.50;;;4.60;99.90;;;;;;5077782;28;20123;-69
2022/01/06 01:41:04;;;;;;;9.35;2.85;;;4.50;99.90;;;;;;5062720;28;20044;-69
2022/01/06 01:43:30;;;;;;;18.95;4.43;;;4.50;99.90;;;;;;5073396;28;20107;-69
2022/01/06 01:45:58;;;;;;;9.38;3.13;;;4.50;99.90;;;;;;5079090;28;20397;-69
2022/01/06 01:48:33;;;;;;;11.68;3.35;;;4.50;99.90;;;;;;5075384;28;20052;-69
2022/01/06 01:50:58;;;;;;;15.57;4.10;;;4.50;99.90;;;;;;5075583;28;20577;-69
2022/01/06 01:53:24;;;;;;;12.88;4.38;;;4.50;99.90;;;;;;5079557;28;20051;-69
2022/01/06 01:55:50;;;;;;;16.42;4.38;;;4.50;99.90;;;;;;5059008;28;20044;-69
2022/01/06 01:58:16;;;;;;;14.02;3.90;;;4.50;99.90;;;;;;5077591;28;20044;-69
2022/01/06 02:00:42;;;;;;;14.30;3.90;;;4.50;99.90;;;;;;5077848;28;20127;-69
2022/01/06 02:03:08;;;;;;;11.43;3.70;;;4.50;99.90;;;;;;5074495;28;20505;-69
2022/01/06 02:05:34;;;;;;;12.25;3.63;;;4.50;99.90;;;;;;5079103;28;20043;-69
2022/01/06 02:08:00;;;;;;;11.02;3.50;;;4.50;99.90;;;;;;5073909;28;20048;-69
2022/01/06 02:10:27;;;;;;;8.45;3.17;;;4.40;99.90;;;;;;5077708;28;20505;-69
2022/01/06 02:12:55;;;;;;;7.88;4.05;;;4.40;99.90;;;;;;5077458;28;20124;-69
2022/01/06 02:15:21;;;;;;;11.30;3.97;;;4.40;99.90;;;;;;5077591;28;20582;-69
2022/01/06 02:17:48;;;;;;;14.63;3.85;;;4.40;99.90;;;;;;5067550;28;20080;-69
2022/01/06 02:20:16;;;;;;;15.93;3.20;;;4.40;99.90;;;;;;5074464;28;20381;-69
2022/01/06 02:22:42;;;;;;;12.07;3.10;;;4.40;99.90;;;;;;5077667;28;20381;-69
2022/01/06 02:25:18;;;;;;;12.13;3.72;;;4.40;99.90;;;;;;5077209;28;20067;-69
2022/01/06 02:27:52;;;;;;;21.58;3.92;;;4.40;99.90;;;;;;5078257;28;20115;-69
2022/01/06 02:30:19;;;;;;;14.77;4.30;;;4.30;99.90;;;;;;5083401;28;20044;-69
2022/01/06 02:32:45;;;;;;;10.80;3.83;;;4.30;99.90;;;;;;5080788;28;20036;-69
2022/01/06 02:35:17;;;;;;;13.77;4.30;;;4.30;99.90;;;;;;5080267;28;20036;-69
2022/01/06 02:37:43;;;;;;;16.02;4.00;;;4.30;99.90;;;;;;5084273;28;20120;-69
2022/01/06 02:40:14;;;;;;;16.48;4.03;;;4.30;99.90;;;;;;5078539;28;20593;-69
2022/01/06 02:42:49;;;;;;;12.35;3.33;;;4.30;99.90;;;;;;5080572;28;20731;-69
2022/01/06 02:45:17;;;;;;;8.98;3.63;;;4.30;99.90;;;;;;5082911;28;20042;-69
2022/01/06 02:47:43;;;;;;;13.80;4.25;;;4.30;99.90;;;;;;5076702;28;20036;-69
2022/01/06 02:50:10;;;;;;;11.32;3.95;;;4.30;99.90;;;;;;5083162;28;20037;-69
2022/01/06 02:52:38;;;;;;;11.70;3.60;;;4.30;99.90;;;;;;5094673;28;20093;-69
2022/01/06 02:55:06;;;;;;;10.80;3.33;;;4.30;99.90;;;;;;5076760;28;20063;-69
2022/01/06 02:57:32;;;;;;;20.63;4.13;;;4.20;99.90;;;;;;5083006;28;20123;-69
2022/01/06 02:59:58;;;;;;;16.80;4.38;;;4.20;99.90;;;;;;5079243;28;20088;-69
2022/01/06 03:02:24;;;;;;;16.30;3.95;;;4.10;99.90;;;;;;5083438;28;20513;-70
2022/01/06 03:04:50;;;;;;;9.73;3.80;;;4.10;99.90;;;;;;5080392;28;20524;-69
2022/01/06 03:07:16;;;;;;;9.85;3.40;;;4.10;99.90;;;;;;5052470;28;20478;-69
2022/01/06 03:09:44;;;;;;;13.98;3.17;;;4.10;99.90;;;;;;5080952;28;20102;-69
2022/01/06 03:12:25;;;;;;;13.82;4.53;;;4.00;99.90;;;;;;5058592;28;20044;-69
2022/01/06 03:14:51;;;;;;;15.32;4.00;;;4.10;99.90;;;;;;5076916;28;20051;-69
2022/01/06 03:17:17;;;;;;;12.95;3.65;;;4.00;99.90;;;;;;5082443;28;20409;-69
2022/01/06 03:19:43;;;;;;;11.73;3.70;;;4.00;99.90;;;;;;5079285;28;20505;-69
2022/01/06 03:22:09;;;;;;;14.13;3.58;;;4.00;99.90;;;;;;5082719;28;20043;-69
2022/01/06 03:24:35;;;;;;;9.25;3.45;;;3.90;99.90;;;;;;5078683;28;20105;-69
2022/01/06 03:27:00;;;;;;;8.45;3.45;;;3.90;99.90;;;;;;5081278;28;20032;-69
2022/01/06 03:29:26;;;;;;;9.77;3.70;;;3.90;99.90;;;;;;5079470;28;20493;-69
2022/01/06 03:31:52;;;;;;;10.90;3.10;;;3.80;99.90;;;;;;5078882;28;20127;-69
2022/01/06 03:34:18;;;;;;;16.77;3.85;;;3.80;99.90;;;;;;5080315;28;20397;-69
2022/01/06 03:36:44;;;;;;;17.38;4.13;;;3.90;99.90;;;;;;5059296;28;20361;-70
2022/01/06 03:39:10;;;;;;;8.45;2.90;;;3.80;99.90;;;;;;5080300;28;20032;-69
2022/01/06 03:41:35;;;;;;;18.08;3.33;;;3.80;99.90;;;;;;5078916;28;20068;-69
2022/01/06 03:44:01;;;;;;;9.40;3.30;;;3.70;99.90;;;;;;5078177;28;20600;-69
2022/01/06 03:46:27;;;;;;;11.65;3.22;;;3.70;99.90;;;;;;5065676;28;20464;-69
2022/01/06 03:48:53;;;;;;;13.18;3.25;;;3.60;99.90;;;;;;5059810;28;20785;-69
2022/01/06 03:51:20;;;;;;;9.70;3.05;;;3.50;99.90;;;;;;5063102;28;20089;-69
2022/01/06 03:53:47;;;;;;;9.00;3.55;;;3.50;99.90;;;;;;5080550;28;20055;-69
2022/01/06 03:56:13;;;;;;;13.50;2.92;;;3.40;99.90;;;;;;5074495;28;20041;-69
2022/01/06 03:58:40;;;;;;;14.27;2.97;;;3.40;99.90;;;;;;5079729;28;20456;-69
2022/01/06 04:01:07;;;;;;;11.48;3.22;;;3.30;99.90;;;;;;5077985;28;20052;-69
2022/01/06 04:03:33;;;;;;;13.35;4.28;;;3.20;99.90;;;;;;5079025;28;20136;-69
2022/01/06 04:05:58;;;;;;;12.98;3.25;;;3.20;99.90;;;;;;5081449;28;20523;-69
2022/01/06 04:08:24;;;;;;;14.00;3.08;;;3.10;99.90;;;;;;5077938;28;20039;-69
2022/01/06 04:10:50;;;;;;;7.28;2.90;;;3.10;99.90;;;;;;5079044;28;20041;-69
2022/01/06 04:13:16;;;;;;;20.00;3.53;;;3.00;99.90;;;;;;5078312;28;20515;-69
2022/01/06 04:15:45;;;;;;;13.82;3.38;;;3.00;99.90;;;;;;5077267;28;20048;-69
2022/01/06 04:18:11;;;;;;;17.05;3.15;;;2.90;99.90;;;;;;5081894;28;20064;-69
2022/01/06 04:20:38;;;;;;;7.53;3.25;;;2.90;99.90;;;;;;5075953;28;20101;-69
2022/01/06 04:23:04;;;;;;;12.13;3.70;;;2.80;99.90;;;;;;5081923;28;20879;-69
2022/01/06 04:25:30;;;;;;;13.27;3.40;;;2.80;99.90;;;;;;5076554;28;20039;-69
2022/01/06 04:27:55;;;;;;;17.58;3.28;;;2.80;99.90;;;;;;5079665;28;20041;-69
2022/01/06 04:30:21;;;;;;;11.30;3.13;;;2.70;99.90;;;;;;5079072;28;20036;-69
2022/01/06 04:32:47;;;;;;;8.45;2.58;;;2.60;99.90;;;;;;5075152;28;20078;-69
2022/01/06 04:35:13;;;;;;;11.57;2.55;;;2.70;99.90;;;;;;5079113;28;20044;-69
2022/01/06 04:37:39;;;;;;;8.25;2.78;;;2.60;99.90;;;;;;5077471;28;20032;-69
2022/01/06 04:40:06;;;;;;;9.13;3.28;;;2.50;99.90;;;;;;5077724;28;20036;-69
2022/01/06 04:42:33;;;;;;;11.95;3.33;;;2.50;99.90;;;;;;5082101;28;20115;-69
2022/01/06 04:45:00;;;;;;;15.02;3.20;;;2.50;99.90;;;;;;5076451;28;20033;-69
2022/01/06 04:47:26;;;;;;;9.68;3.00;;;2.40;99.90;;;;;;5080382;28;20060;-69
2022/01/06 04:49:52;;;;;;;15.07;3.97;;;2.40;99.90;;;;;;5076550;28;20044;-69
2022/01/06 04:52:18;;;;;;;9.05;3.78;;;2.40;99.90;;;;;;5077220;28;20066;-69
2022/01/06 04:54:43;;;;;;;10.45;2.72;;;2.30;99.90;;;;;;5081445;28;20389;-69
2022/01/06 04:57:10;;;;;;;11.75;2.95;;;2.30;99.90;;;;;;5070966;28;20079;-69
2022/01/06 04:59:36;;;;;;;9.25;2.88;;;2.30;99.90;;;;;;5079650;28;20044;-69
2022/01/06 05:02:03;;;;;;;12.32;3.38;;;2.30;99.90;;;;;;5077566;28;20047;-69
2022/01/06 05:04:29;;;;;;;11.18;3.15;;;2.20;99.90;;;;;;5075594;28;20584;-69
2022/01/06 05:06:55;;;;;;;9.93;3.05;;;2.20;99.90;;;;;;5079906;28;20083;-69
2022/01/06 05:09:21;;;;;;;9.18;3.10;;;2.20;99.90;;;;;;5076502;28;20074;-69
2022/01/06 05:11:46;;;;;;;12.75;3.78;;;2.10;99.90;;;;;;5077611;28;20105;-69
2022/01/06 05:14:12;;;;;;;9.98;3.38;;;2.10;99.90;;;;;;5078238;28;20712;-69
2022/01/06 05:16:38;;;;;;;11.10;3.45;;;2.10;99.90;;;;;;5076786;28;20039;-69
2022/01/06 05:19:04;;;;;;;8.57;3.03;;;2.10;99.90;;;;;;5081256;28;20032;-69
2022/01/06 05:21:31;;;;;;;9.65;3.35;;;2.00;99.90;;;;;;5078133;28;20123;-69
2022/01/06 05:23:57;;;;;;;8.02;3.03;;;2.00;99.90;;;;;;5080062;28;20031;-69
2022/01/06 05:26:23;;;;;;;9.05;2.78;;;2.00;99.90;;;;;;5076408;28;20044;-69
2022/01/06 05:28:50;;;;;;;8.98;3.55;;;2.00;99.90;;;;;;5076194;28;20152;-69
2022/01/06 05:31:15;;;;;;;12.40;3.65;;;2.00;99.90;;;;;;5078189;28;20048;-69
2022/01/06 05:33:41;;;;;;;6.30;3.22;;;2.00;99.90;;;;;;5075066;28;20048;-69
2022/01/06 05:36:07;;;;;;;10.38;3.40;;;2.00;99.90;;;;;;5075544;28;20044;-69
2022/01/06 05:38:33;;;;;;;14.40;3.88;;;1.90;99.90;;;;;;5079260;28;20047;-69
2022/01/06 05:40:59;;;;;;;19.45;4.38;;;1.90;99.90;;;;;;5077899;28;20067;-69
2022/01/06 05:43:25;;;;;;;14.82;3.95;;;1.90;99.90;;;;;;5078563;28;20343;-69
2022/01/06 05:45:55;;;;;;;9.60;2.95;;;1.90;99.90;;;;;;5076804;28;20505;-69
2022/01/06 05:48:22;;;;;;;9.85;2.92;;;1.90;99.90;;;;;;5059782;28;20125;-69
2022/01/06 05:50:48;;;;;;;8.05;3.60;;;1.90;99.90;;;;;;5078572;28;20127;-68
2022/01/06 05:53:18;;;;;;;10.40;4.10;;;1.80;99.90;;;;;;5074896;28;20446;-69
2022/01/06 05:55:44;;;;;;;9.35;2.80;;;1.80;99.90;;;;;;5077668;28;20586;-69
2022/01/06 05:58:10;;;;;;;8.25;2.85;;;1.80;99.90;;;;;;5075756;28;20119;-69
2022/01/06 06:00:36;;;;;;;11.05;3.42;;;1.80;99.90;;;;;;5079277;28;20048;-69
2022/01/06 06:03:02;;;;;;;7.78;3.72;;;1.80;99.90;;;;;;5066194;28;20650;-69
2022/01/06 06:05:28;;;;;;;9.18;3.03;;;1.80;99.90;;;;;;5081107;28;20048;-69
2022/01/06 06:07:54;;;;;;;12.27;2.97;;;1.80;99.90;;;;;;5083782;28;20105;-69
2022/01/06 06:10:20;;;;;;;18.02;4.05;;;1.80;99.90;;;;;;5079773;28;20062;-68
2022/01/06 06:12:45;;;;;;;8.52;2.85;;;1.70;99.90;;;;;;5078434;28;20048;-69
2022/01/06 06:15:11;;;;;;;8.73;3.42;;;1.70;99.90;;;;;;5083818;28;20066;-69
2022/01/06 06:17:39;;;;;;;12.57;4.88;;;1.70;99.90;;;;;;5076379;28;20056;-68
2022/01/06 06:20:05;;;;;;;13.32;3.95;;;1.70;99.90;;;;;;5082022;28;20041;-69
2022/01/06 06:22:31;;;;;;;9.15;3.28;;;1.70;99.90;;;;;;5061473;28;20079;-69
2022/01/06 06:24:56;;;;;;;8.38;3.13;;;1.70;99.90;;;;;;5081021;28;20144;-69
2022/01/06 06:27:23;;;;;;;10.95;3.95;;;1.70;99.90;;;;;;5064897;28;20055;-69
2022/01/06 06:29:49;;;;;;;13.68;3.72;;;1.60;99.90;;;;;;5078904;28;20512;-68
2022/01/06 06:32:14;;;;;;;11.20;3.80;;;1.60;99.90;;;;;;5083489;28;20075;-68
2022/01/06 06:34:40;;;;;;;8.52;3.78;;;1.60;99.90;;;;;;5062561;28;20043;-69
2022/01/06 06:37:06;;;;;;;11.45;3.67;;;1.60;99.90;;;;;;5077710;28;20048;-68
2022/01/06 06:39:32;;;;;;;15.85;3.60;;;1.60;99.90;;;;;;5080260;28;20040;-68
2022/01/06 06:41:58;;;;;;;11.90;4.75;;;1.60;99.90;;;;;;5075212;28;20040;-68
2022/01/06 06:44:23;;;;;;;8.70;3.72;;;1.70;99.90;;;;;;5080174;28;20041;-68
2022/01/06 06:46:51;;;;;;;12.80;4.55;;;1.70;99.90;;;;;;5076575;28;20041;-68
2022/01/06 06:49:16;;;;;;;7.97;3.40;;;1.70;99.90;;;;;;5077091;28;20040;-68
2022/01/06 06:51:42;;;;;;;22.27;4.88;;;1.70;99.90;;;;;;5078478;28;20081;-68
2022/01/06 06:54:08;;;;;;;14.90;4.07;;;1.70;99.90;;;;;;5073967;28;20054;-68
2022/01/06 06:56:34;;;;;;;12.75;3.08;;;1.70;99.90;;;;;;5078565;28;20044;-68
2022/01/06 06:59:00;;;;;;;9.93;4.00;;;1.70;99.90;;;;;;5051329;28;20557;-68
2022/01/06 07:01:25;;;;;;;11.82;3.38;;;1.60;99.90;;;;;;5076228;28;20088;-68
2022/01/06 07:03:51;;;;;;;7.15;4.22;;;1.60;99.90;;;;;;5078830;28;20062;-68
2022/01/06 07:06:17;;;;;;;9.80;3.08;;;1.60;99.90;;;;;;5079457;28;20115;-68
2022/01/06 07:08:43;;;;;;;9.75;3.92;;;1.60;99.90;;;;;;5080452;28;20028;-68
2022/01/06 07:11:09;;;;;;;14.13;3.35;;;1.60;99.90;;;;;;5079676;28;20091;-68
2022/01/06 07:13:35;;;;;;;16.02;4.50;;;1.60;99.90;;;;;;5058410;28;20520;-68
2022/01/06 07:16:01;;;;;;;20.17;4.03;;;1.60;99.90;;;;;;5083055;28;20040;-68
2022/01/06 07:18:27;;;;;;;15.02;4.68;;;1.60;99.90;;;;;;5078400;28;20394;-68
2022/01/06 07:20:53;;;;;;;10.48;4.65;;;1.60;99.90;;;;;;5062944;28;20520;-68
2022/01/06 07:23:18;;;;;;;11.60;3.47;;;1.50;99.90;;;;;;5078122;28;20040;-68
2022/01/06 07:25:44;;;;;;;9.02;3.53;;;1.50;99.90;;;;;;5077516;28;20073;-68
2022/01/06 07:28:10;;;;;;;8.38;3.28;;;1.50;99.90;;;;;;5083227;28;20375;-68
2022/01/06 07:30:36;;;;;;;11.02;3.63;;;1.50;99.90;;;;;;5067095;28;20060;-68
2022/01/06 07:33:02;;;;;;;16.00;3.97;;;1.50;99.90;;;;;;5079457;28;20427;-68
2022/01/06 07:35:28;;;;;;;14.65;3.95;;;1.50;99.90;;;;;;5078270;28;20039;-68
2022/01/06 07:37:54;;;;;;;18.83;3.90;;;1.50;99.90;;;;;;5078125;28;20463;-68
2022/01/06 07:40:20;;;;;;;12.50;3.75;;;1.50;99.90;;;;;;5076673;28;20043;-68
2022/01/06 07:42:48;;;;;;;10.05;4.35;;;1.50;99.90;;;;;;5076748;28;20400;-68
2022/01/06 07:45:14;;;;;;;10.30;4.68;;;1.50;99.90;;;;;;5079414;28;20044;-68
2022/01/06 07:47:54;;;;;;;9.90;4.03;;;1.50;99.90;;;;;;5061168;28;20040;-68
2022/01/06 07:50:32;;;;;;;14.93;5.65;;;1.50;99.90;;;;;;5077411;28;20143;-68
2022/01/06 07:52:58;;;;;;;17.52;4.10;;;1.40;99.90;;;;;;5066068;28;20095;-68
2022/01/06 07:55:26;;;;;;;15.82;5.45;;;1.40;99.90;;;;;;5073593;28;20051;-68
2022/01/06 07:57:54;;;;;;;11.68;3.10;;;1.40;99.90;;;;;;5074601;28;20036;-68
2022/01/06 08:00:21;;;;;;;11.05;4.82;;;1.40;99.90;;;;;;5077571;28;20043;-68
2022/01/06 08:02:47;;;;;;;11.27;4.63;;;1.40;99.90;;;;;;5072961;28;20133;-68
2022/01/06 08:05:15;;;;;;;11.10;3.90;;;1.40;99.90;;;;;;5056463;28;20190;-68
2022/01/06 08:07:41;;;;;;;13.15;4.10;;;1.40;99.90;;;;;;5073750;28;20036;-68
2022/01/06 08:10:09;;;;;;;12.70;3.78;;;1.40;99.90;;;;;;5058068;28;20050;-68
2022/01/06 08:12:35;;;;;;;15.88;4.60;;;1.40;99.90;;;;;;5064091;28;20128;-68
2022/01/06 08:15:01;;;;;;;9.90;4.70;;;1.40;99.90;;;;;;5074448;28;20149;-68
2022/01/06 08:17:27;;;;;;;17.70;4.75;;;1.50;99.90;;;;;;5059994;28;20048;-68
2022/01/06 08:19:53;;;;;;;21.27;5.20;;;1.50;99.90;;;;;;5072768;28;20101;-68
2022/01/06 08:22:20;;;;;;;18.45;4.28;;;1.50;99.90;;;;;;5075092;28;20397;-68
2022/01/06 08:24:46;;;;;;;17.80;3.72;;;1.50;99.90;;;;;;5056467;28;20040;-68
2022/01/06 08:27:11;;;;;;;15.32;5.05;;;1.50;99.90;;;;;;5073322;28;20078;-68
2022/01/06 08:29:38;;;;;;;10.55;3.90;;;1.50;99.90;;;;;;5076814;28;20036;-68
2022/01/06 08:32:05;;;;;;;10.55;4.63;;;1.50;99.90;;;;;;5073110;28;20343;-68
2022/01/06 08:34:31;;;;;;;14.13;3.88;;;1.50;99.90;;;;;;5076066;28;20516;-68
2022/01/06 08:36:57;;;;;;;12.00;3.92;;;1.50;99.90;;;;;;5075863;28;20043;-68
2022/01/06 08:39:23;;;;;;;17.30;3.88;;;1.50;99.90;;;;;;5074934;28;20041;-68
2022/01/06 08:41:49;;;;;;;10.23;4.32;;;1.50;99.90;;;;;;5073588;28;20052;-68
2022/01/06 08:44:16;;;;;;;10.52;4.18;;;1.60;99.90;;;;;;5068746;28;20051;-68
2022/01/06 08:46:42;;;;;;;12.02;4.55;;;1.60;99.90;;;;;;5074895;28;20039;-68
2022/01/06 08:49:11;;;;;;;11.80;3.90;;;1.60;99.90;;;;;;5071847;28;20036;-68
2022/01/06 08:51:42;;;;;;;16.58;3.72;;;1.70;99.90;;;;;;5073148;28;20417;-68
2022/01/06 08:54:08;;;;;;;18.13;5.20;;;1.70;99.90;;;;;;5062493;28;20054;-68
2022/01/06 08:56:35;;;;;;;17.63;4.00;;;1.80;99.90;;;;;;5074030;28;20036;-68
2022/01/06 08:59:01;;;;;;;13.05;4.10;;;1.80;99.90;;;;;;5075388;28;20051;-68
2022/01/06 09:01:27;;;;;;;17.15;5.47;;;1.80;99.90;;;;;;5071501;28;20509;-68
2022/01/06 09:03:54;;;;;;;14.77;4.70;;;1.90;99.90;;;;;;5073329;28;20064;-68
2022/01/06 09:06:20;;;;;;;10.35;4.20;;;1.90;99.90;;;;;;5073892;28;20097;-68
2022/01/06 09:08:47;;;;;;;7.05;4.35;;;1.90;99.90;;;;;;5071208;28;20123;-69
2022/01/06 09:11:14;;;;;;;10.73;3.90;;;2.00;99.90;;;;;;5074934;28;20059;-68
2022/01/06 09:13:39;;;;;;;13.60;4.18;;;2.00;99.90;;;;;;5070318;28;20488;-68
2022/01/06 09:16:08;;;;;;;21.35;4.78;;;2.00;99.90;;;;;;5071254;28;20322;-68
2022/01/06 09:18:35;;;;;;;8.57;3.83;;;2.10;99.90;;;;;;5070987;28;20066;-68
2022/01/06 09:21:01;;;;;;;9.63;3.75;;;2.10;99.90;;;;;;5068552;28;20131;-68
2022/01/06 09:23:26;;;;;;;11.90;3.47;;;2.10;99.90;;;;;;5077449;28;20036;-68
2022/01/06 09:25:52;;;;;;;12.45;5.55;;;2.10;99.90;;;;;;5072619;28;20044;-68
2022/01/06 09:28:18;;;;;;;12.00;3.90;;;2.10;99.90;;;;;;5074989;28;20051;-68
2022/01/06 09:30:44;;;;;;;12.75;5.32;;;2.10;99.90;;;;;;5073612;28;20040;-68
2022/01/06 09:33:10;;;;;;;12.65;3.70;;;2.20;99.90;;;;;;5071965;28;20036;-70
2022/01/06 09:35:36;;;;;;;14.32;5.00;;;2.20;99.90;;;;;;5074652;28;20137;-69
2022/01/06 09:38:03;;;;;;;10.18;4.53;;;2.30;99.90;;;;;;5068999;28;20460;-69
2022/01/06 09:40:29;;;;;;;11.18;4.90;;;2.30;99.90;;;;;;5075486;28;20517;-69
2022/01/06 09:42:55;;;;;;;13.52;4.03;;;2.30;99.90;;;;;;5072055;28;20118;-68
2022/01/06 09:45:26;;;;;;;15.18;4.50;;;2.40;99.90;;;;;;5073587;28;20126;-69
2022/01/06 09:47:52;;;;;;;19.98;4.57;;;2.50;99.90;;;;;;5073004;28;20039;-69
2022/01/06 09:50:19;;;;;;;12.52;4.40;;;2.60;99.90;;;;;;5068933;28;20047;-69
2022/01/06 09:52:46;;;;;;;14.68;4.07;;;2.60;99.90;;;;;;5073514;28;20504;-69
2022/01/06 09:55:13;;;;;;;8.63;4.35;;;2.70;99.90;;;;;;5084665;28;20308;-68
2022/01/06 09:57:39;;;;;;;17.15;3.83;;;2.70;99.90;;;;;;5073470;28;20497;-68
2022/01/06 10:00:08;;;;;;;10.73;3.42;;;2.80;99.90;;;;;;5072758;28;20085;-68
2022/01/06 10:02:38;;;;;;;21.25;5.95;;;2.90;99.90;;;;;;5073601;28;20353;-69
2022/01/06 10:05:06;;;;;;;11.32;4.80;;;3.00;99.90;;;;;;5075120;28;20056;-68
2022/01/06 10:07:39;;;;;;;11.55;4.20;;;3.00;99.90;;;;;;5071625;28;20908;-69
2022/01/06 10:10:10;;;;;;;13.48;5.22;;;3.10;99.90;;;;;;5075378;28;20043;-68
2022/01/06 10:12:41;;;;;;;8.88;3.85;;;3.20;99.90;;;;;;5072306;28;20086;-68
2022/01/06 10:15:18;;;;;;;12.43;4.10;;;3.30;99.90;;;;;;5069568;28;20036;-68
2022/01/06 10:17:45;;;;;;;11.43;4.57;;;3.40;99.90;;;;;;5074307;28;20595;-68
2022/01/06 10:20:23;;;;;;;13.07;4.28;;;3.40;99.90;;;;;;5086478;28;20382;-68
2022/01/06 10:22:52;;;;;;;10.68;4.10;;;3.50;99.90;;;;;;5072124;28;20425;-68
2022/01/06 10:25:20;;;;;;;14.88;4.53;;;3.60;99.90;;;;;;5075272;28;20040;-68
2022/01/06 10:27:49;;;;;;;13.70;3.80;;;3.70;99.90;;;;;;5071274;28;20507;-68
2022/01/06 10:30:15;;;;;;;14.55;4.78;;;3.80;99.90;;;;;;5073853;28;20079;-68
2022/01/06 10:32:42;;;;;;;14.52;4.53;;;3.90;99.90;;;;;;5071821;28;20048;-68
2022/01/06 10:35:10;;;;;;;13.13;3.88;;;4.00;99.90;;;;;;5067595;28;20145;-68
2022/01/06 10:37:42;;;;;;;17.08;5.28;;;4.10;99.90;;;;;;5070411;28;20647;-68
2022/01/06 10:40:22;;;;;;;11.80;3.70;;;4.20;99.90;;;;;;5069100;28;20551;-68
2022/01/06 10:42:51;;;;;;;13.15;4.25;;;4.30;99.90;;;;;;5075044;28;20068;-68
2022/01/06 10:45:24;;;;;;;11.27;3.75;;;4.40;99.90;;;;;;5072866;28;20151;-68
2022/01/06 10:47:52;;;;;;;;;;;4.50;99.90;;;;;;5074927;28;20225;-68
2022/01/06 10:50:21;;;;;;;12.85;3.78;;;4.60;99.90;;;;;;5078689;28;19931;-68
2022/01/06 10:52:49;;;;;;;18.48;4.78;;;4.70;99.90;;;;;;5076177;28;20044;-68
2022/01/06 10:55:21;;;;;;;14.93;4.53;;;4.80;99.90;;;;;;5059460;28;20097;-68
2022/01/06 10:57:50;;;;;;;15.35;4.50;;;4.90;99.90;;;;;;5076162;28;20104;-68
2022/01/06 11:00:18;;;;;;;12.38;3.50;;;5.00;99.90;;;;;;5072337;28;20040;-68
2022/01/06 11:02:44;;;;;;;13.90;4.78;;;5.10;99.90;;;;;;5076090;28;20093;-68
2022/01/06 11:05:09;;;;;;;9.38;4.43;;;5.20;99.90;;;;;;5073982;28;20623;-69
2022/01/06 11:07:35;;;;;;;12.48;4.00;;;5.30;99.90;;;;;;5079234;28;20139;-68
2022/01/06 11:10:13;;;;;;;16.98;4.78;;;5.40;99.90;;;;;;5076944;28;20040;-69
2022/01/06 11:12:39;;;;;;;14.98;3.92;;;5.50;99.90;;;;;;5075804;28;20063;-69
2022/01/06 11:15:06;;;;;;;13.20;4.45;;;5.50;99.90;;;;;;5075786;28;20044;-69
2022/01/06 11:17:32;;;;;;;16.30;5.10;;;5.60;99.90;;;;;;5072828;28;20089;-69
2022/01/06 11:19:58;;;;;;;12.25;4.47;;;5.50;99.90;;;;;;5075304;28;20414;-69
2022/01/06 11:22:26;;;;;;;13.20;4.30;;;5.50;99.90;;;;;;5076848;28;20040;-69
2022/01/06 11:24:59;;;;;;;11.10;4.22;;;5.40;99.90;;;;;;5076694;28;20033;-69
2022/01/06 11:27:34;;;;;;;15.02;4.63;;;5.40;99.90;;;;;;5076791;28;20094;-69
2022/01/06 11:30:14;;;;;;;15.52;4.28;;;5.40;99.90;;;;;;5075234;28;20481;-69
2022/01/06 11:32:42;;;;;;;14.05;3.92;;;5.50;99.90;;;;;;5076244;28;20248;-69
2022/01/06 11:35:15;;;;;;;18.55;3.90;;;5.60;99.90;;;;;;5072735;28;20058;-69
2022/01/06 11:37:43;;;;;;;7.55;3.40;;;5.80;99.90;;;;;;5077167;28;20047;-69
2022/01/06 11:40:09;;;;;;;12.57;3.88;;;5.80;99.90;;;;;;5080470;28;20439;-69
2022/01/06 11:42:35;;;;;;;9.63;3.88;;;5.80;99.90;;;;;;5066727;28;20067;-69
2022/01/06 11:45:05;;;;;;;10.27;3.85;;;5.80;99.90;;;;;;5078009;28;20037;-69
2022/01/06 11:47:38;;;;;;;13.13;3.65;;;6.00;99.90;;;;;;5065476;28;20509;-69
2022/01/06 11:50:24;;;;;;;9.68;2.97;;;6.10;99.90;;;;;;5076821;28;20502;-69
2022/01/06 11:53:01;;;;;;;6.53;2.40;;;6.30;99.90;;;;;;5081526;28;20132;-69
2022/01/06 11:55:34;;;;;;;7.50;2.45;;;7.20;99.90;;;;;;5081816;28;20108;-70
2022/01/06 11:58:09;;;;;;;9.85;3.20;;;8.30;99.90;;;;;;5075314;28;20055;-69
2022/01/06 12:00:35;;;;;;;10.23;3.50;;;9.30;99.90;;;;;;5077264;28;20036;-70
2022/01/06 12:03:06;;;;;;;9.52;2.40;;;9.90;99.90;;;;;;5078218;28;20055;-70
2022/01/06 12:05:59;;;;;;;9.48;2.45;;;10.50;99.90;;;;;;5075740;28;20516;-70
2022/01/06 12:08:40;;;;;;;9.20;2.55;;;10.80;93.70;;;;;;5081923;28;20060;-71
2022/01/06 12:11:27;;;;;;;8.32;2.42;;;11.20;95.50;;;;;;5082657;28;20040;-71
2022/01/06 12:13:56;;;;;;;9.43;2.00;;;11.50;98.10;;;;;;5061644;28;20052;-70
2022/01/06 12:16:37;;;;;;;8.38;2.25;;;12.20;97.20;;;;;;5076569;28;20124;-71
2022/01/06 12:19:13;;;;;;;8.52;2.58;;;12.90;89.10;;;;;;5074527;28;20097;-71
2022/01/06 12:21:39;;;;;;;10.43;3.60;;;13.00;78.10;;;;;;5058335;28;20089;-71
2022/01/06 12:24:08;;;;;;;6.55;2.35;;;13.00;85.30;;;;;;5078884;28;20043;-71
2022/01/06 12:26:34;;;;;;;10.95;2.70;;;13.30;83.20;;;;;;5071163;28;20401;-71
2022/01/06 12:29:04;;;;;;;10.55;2.88;;;13.40;79.10;;;;;;5077561;28;20032;-71
2022/01/06 12:31:31;;;;;;;5.88;2.40;;;13.70;78.30;;;;;;5081016;28;20036;-71
2022/01/06 12:34:00;;;;;;;7.03;1.92;;;13.90;75.20;;;;;;5076484;28;20052;-71
2022/01/06 12:36:32;;;;;;;7.05;2.70;;;14.20;74.60;;;;;;5080489;28;20048;-71
2022/01/06 12:39:05;;;;;;;5.78;2.03;;;14.50;68.00;;;;;;5078769;28;20048;-71
2022/01/06 12:41:32;;;;;;;;;;;14.70;71.30;;;;;;5073153;28;20051;-71
2022/01/06 12:43:58;;;;;;;4.60;1.80;;;14.60;62.90;;;;;;5073589;28;19920;-71
2022/01/06 12:46:34;;;;;;;6.95;2.38;;;14.80;70.50;;;;;;5075465;28;20482;-71
2022/01/06 12:49:01;;;;;;;8.70;2.28;;;14.80;68.10;;;;;;5072631;28;20247;-71
2022/01/06 12:51:30;;;;;;;8.32;2.63;;;14.60;68.80;;;;;;5042486;28;20044;-71
2022/01/06 12:54:11;;;;;;;6.35;2.20;;;14.30;69.20;;;;;;5067646;28;20108;-72
2022/01/06 12:56:38;;;;;;;7.47;2.78;;;14.00;66.60;;;;;;5079246;28;20054;-71
2022/01/06 12:59:27;;;;;;;6.65;2.72;;;13.60;69.50;;;;;;5076251;28;20658;-71
2022/01/06 13:01:56;;;;;;;8.18;3.33;;;13.30;69.10;;;;;;5074418;28;20564;-71
2022/01/06 13:04:28;;;;;;;8.25;3.10;;;12.90;71.20;;;;;;5063377;28;20142;-71